sensor_id;sensor_type;location;lat;lon;timestamp;pressure;altitude;pressure_sealevel;temperature;humidity
39949;BME280;29070;48.102;-1.652;2023-07-13T00:03:36;101634.13;;;17.78;57.78
39949;BME280;29070;48.102;-1.652;2023-07-13T00:08:36;101641.72;;;17.75;57.61
39949;BME280;29070;48.102;-1.652;2023-07-13T00:13:37;101636.47;;;17.68;57.91
39949;BME280;29070;48.102;-1.652;2023-07-13T00:18:39;101635.31;;;17.64;57.94
39949;BME280;29070;48.102;-1.652;2023-07-13T00:23:41;101626.59;;;17.57;57.91
39949;BME280;29070;48.102;-1.652;2023-07-13T00:28:42;101628.72;;;17.48;57.91
39949;BME280;29070;48.102;-1.652;2023-07-13T00:33:43;101631.22;;;17.43;58.36
39949;BME280;29070;48.102;-1.652;2023-07-13T00:38:44;101630.66;;;17.34;58.42
39949;BME280;29070;48.102;-1.652;2023-07-13T00:43:44;101625.03;;;17.24;58.64
39949;BME280;29070;48.102;-1.652;2023-07-13T00:48:46;101619.41;;;17.13;58.86
39949;BME280;29070;48.102;-1.652;2023-07-13T00:53:48;101617.63;;;17.07;58.93
39949;BME280;29070;48.102;-1.652;2023-07-13T00:58:49;101619.50;;;17.00;59.06
39949;BME280;29070;48.102;-1.652;2023-07-13T01:03:50;101619.94;;;16.97;59.22
39949;BME280;29070;48.102;-1.652;2023-07-13T01:08:50;101613.28;;;16.88;59.49
39949;BME280;29070;48.102;-1.652;2023-07-13T01:13:51;101618.81;;;16.80;59.63
39949;BME280;29070;48.102;-1.652;2023-07-13T01:18:51;101622.28;;;16.80;59.45
39949;BME280;29070;48.102;-1.652;2023-07-13T01:23:52;101630.22;;;16.80;59.72
39949;BME280;29070;48.102;-1.652;2023-07-13T01:28:52;101631.03;;;16.81;59.58
39949;BME280;29070;48.102;-1.652;2023-07-13T01:33:53;101625.94;;;16.79;59.94
39949;BME280;29070;48.102;-1.652;2023-07-13T01:38:54;101632.31;;;16.71;60.22
39949;BME280;29070;48.102;-1.652;2023-07-13T01:43:54;101633.31;;;16.70;60.38
39949;BME280;29070;48.102;-1.652;2023-07-13T01:48:55;101629.88;;;16.70;60.50
39949;BME280;29070;48.102;-1.652;2023-07-13T01:53:55;101635.97;;;16.70;60.63
39949;BME280;29070;48.102;-1.652;2023-07-13T01:58:55;101639.09;;;16.67;60.87
39949;BME280;29070;48.102;-1.652;2023-07-13T02:03:57;101633.78;;;16.67;61.12
39949;BME280;29070;48.102;-1.652;2023-07-13T02:08:57;101627.00;;;16.71;61.41
39949;BME280;29070;48.102;-1.652;2023-07-13T02:14:02;101621.09;;;16.76;61.51
39949;BME280;29070;48.102;-1.652;2023-07-13T02:19:02;101641.25;;;16.77;61.48
39949;BME280;29070;48.102;-1.652;2023-07-13T02:24:03;101620.03;;;16.84;61.43
39949;BME280;29070;48.102;-1.652;2023-07-13T02:29:03;101634.09;;;16.77;61.86
39949;BME280;29070;48.102;-1.652;2023-07-13T02:34:04;101622.69;;;16.77;62.04
39949;BME280;29070;48.102;-1.652;2023-07-13T02:39:06;101617.38;;;16.84;62.16
39949;BME280;29070;48.102;-1.652;2023-07-13T02:44:06;101624.09;;;16.86;62.16
39949;BME280;29070;48.102;-1.652;2023-07-13T02:49:08;101627.13;;;16.90;62.46
39949;BME280;29070;48.102;-1.652;2023-07-13T02:54:08;101624.03;;;16.93;62.51
39949;BME280;29070;48.102;-1.652;2023-07-13T02:59:09;101623.25;;;16.92;62.51
39949;BME280;29070;48.102;-1.652;2023-07-13T03:04:10;101616.97;;;16.87;62.91
39949;BME280;29070;48.102;-1.652;2023-07-13T03:09:12;101615.31;;;16.86;63.12
39949;BME280;29070;48.102;-1.652;2023-07-13T03:14:13;101615.53;;;16.84;63.35
39949;BME280;29070;48.102;-1.652;2023-07-13T03:19:13;101619.03;;;16.85;63.31
39949;BME280;29070;48.102;-1.652;2023-07-13T03:24:13;101619.25;;;16.76;63.45
39949;BME280;29070;48.102;-1.652;2023-07-13T03:29:14;101617.59;;;16.75;63.61
39949;BME280;29070;48.102;-1.652;2023-07-13T03:34:14;101629.44;;;16.80;63.58
39949;BME280;29070;48.102;-1.652;2023-07-13T03:39:15;101631.44;;;16.77;63.68
39949;BME280;29070;48.102;-1.652;2023-07-13T03:44:16;101619.25;;;16.76;63.82
39949;BME280;29070;48.102;-1.652;2023-07-13T03:49:17;101632.06;;;16.80;63.54
39949;BME280;29070;48.102;-1.652;2023-07-13T03:54:17;101638.19;;;16.80;63.68
39949;BME280;29070;48.102;-1.652;2023-07-13T03:59:18;101637.59;;;16.85;63.78
39949;BME280;29070;48.102;-1.652;2023-07-13T04:04:18;101635.53;;;16.87;63.94
39949;BME280;29070;48.102;-1.652;2023-07-13T04:09:19;101649.81;;;16.86;64.04
39949;BME280;29070;48.102;-1.652;2023-07-13T04:14:19;101647.94;;;16.86;64.13
39949;BME280;29070;48.102;-1.652;2023-07-13T04:19:20;101657.94;;;16.91;64.21
39949;BME280;29070;48.102;-1.652;2023-07-13T04:24:20;101658.72;;;16.91;64.34
39949;BME280;29070;48.102;-1.652;2023-07-13T04:29:21;101663.41;;;16.96;64.04
39949;BME280;29070;48.102;-1.652;2023-07-13T04:34:21;101664.41;;;16.95;64.11
39949;BME280;29070;48.102;-1.652;2023-07-13T04:39:21;101661.94;;;17.00;64.11
39949;BME280;29070;48.102;-1.652;2023-07-13T04:44:22;101670.06;;;17.05;64.30
39949;BME280;29070;48.102;-1.652;2023-07-13T04:49:22;101664.19;;;17.03;64.24
39949;BME280;29070;48.102;-1.652;2023-07-13T04:54:22;101666.41;;;17.06;64.31
39949;BME280;29070;48.102;-1.652;2023-07-13T04:59:23;101671.72;;;17.06;64.90
39949;BME280;29070;48.102;-1.652;2023-07-13T05:04:24;101672.09;;;17.10;64.78
39949;BME280;29070;48.102;-1.652;2023-07-13T05:09:24;101678.59;;;17.14;64.82
39949;BME280;29070;48.102;-1.652;2023-07-13T05:14:25;101687.94;;;17.17;64.82
39949;BME280;29070;48.102;-1.652;2023-07-13T05:19:25;101683.47;;;17.17;64.85
39949;BME280;29070;48.102;-1.652;2023-07-13T05:24:26;101689.16;;;17.21;65.00
39949;BME280;29070;48.102;-1.652;2023-07-13T05:29:26;101693.16;;;17.30;65.01
39949;BME280;29070;48.102;-1.652;2023-07-13T05:34:26;101706.22;;;17.31;64.92
39949;BME280;29070;48.102;-1.652;2023-07-13T05:39:27;101706.00;;;17.33;65.35
39949;BME280;29070;48.102;-1.652;2023-07-13T05:44:27;101711.25;;;17.40;65.30
39949;BME280;29070;48.102;-1.652;2023-07-13T05:49:29;101706.53;;;17.42;65.36
39949;BME280;29070;48.102;-1.652;2023-07-13T05:54:30;101725.06;;;17.48;65.18
39949;BME280;29070;48.102;-1.652;2023-07-13T05:59:30;101726.03;;;17.54;65.55
39949;BME280;29070;48.102;-1.652;2023-07-13T06:04:31;101738.09;;;17.57;65.47
39949;BME280;29070;48.102;-1.652;2023-07-13T06:09:31;101739.47;;;17.59;65.61
39949;BME280;29070;48.102;-1.652;2023-07-13T06:14:31;101742.53;;;17.63;65.51
39949;BME280;29070;48.102;-1.652;2023-07-13T06:19:32;101736.56;;;17.67;65.61
39949;BME280;29070;48.102;-1.652;2023-07-13T06:24:33;101744.03;;;17.77;65.68
39949;BME280;29070;48.102;-1.652;2023-07-13T06:29:33;101740.53;;;17.83;65.43
39949;BME280;29070;48.102;-1.652;2023-07-13T06:34:33;101753.06;;;18.01;65.63
39949;BME280;29070;48.102;-1.652;2023-07-13T06:39:34;101757.84;;;18.11;65.55
39949;BME280;29070;48.102;-1.652;2023-07-13T06:44:34;101764.06;;;18.23;65.44
39949;BME280;29070;48.102;-1.652;2023-07-13T06:49:34;101758.69;;;18.30;65.70
39949;BME280;29070;48.102;-1.652;2023-07-13T06:54:35;101758.38;;;18.38;65.38
39949;BME280;29070;48.102;-1.652;2023-07-13T06:59:35;101759.38;;;18.44;65.11
39949;BME280;29070;48.102;-1.652;2023-07-13T07:04:35;101766.59;;;18.55;65.18
39949;BME280;29070;48.102;-1.652;2023-07-13T07:09:36;101771.97;;;18.67;65.09
39949;BME280;29070;48.102;-1.652;2023-07-13T07:14:36;101773.53;;;18.75;64.91
39949;BME280;29070;48.102;-1.652;2023-07-13T07:19:37;101778.38;;;18.78;65.04
39949;BME280;29070;48.102;-1.652;2023-07-13T07:24:37;101800.66;;;18.83;64.71
39949;BME280;29070;48.102;-1.652;2023-07-13T07:29:37;101807.97;;;18.88;64.70
39949;BME280;29070;48.102;-1.652;2023-07-13T07:34:38;101801.97;;;18.93;64.49
39949;BME280;29070;48.102;-1.652;2023-07-13T07:39:38;101799.63;;;19.15;64.72
39949;BME280;29070;48.102;-1.652;2023-07-13T07:44:40;101808.84;;;19.31;64.32
39949;BME280;29070;48.102;-1.652;2023-07-13T07:49:41;101815.69;;;19.38;64.19
39949;BME280;29070;48.102;-1.652;2023-07-13T07:54:41;101810.75;;;19.54;64.05
39949;BME280;29070;48.102;-1.652;2023-07-13T07:59:41;101803.97;;;19.81;63.88
39949;BME280;29070;48.102;-1.652;2023-07-13T08:04:42;101815.13;;;20.02;63.69
39949;BME280;29070;48.102;-1.652;2023-07-13T08:09:42;101810.03;;;20.36;63.33
39949;BME280;29070;48.102;-1.652;2023-07-13T08:14:42;101811.63;;;20.61;63.55
39949;BME280;29070;48.102;-1.652;2023-07-13T08:19:43;101820.13;;;20.98;62.59
39949;BME280;29070;48.102;-1.652;2023-07-13T08:24:43;101813.81;;;21.33;62.06
39949;BME280;29070;48.102;-1.652;2023-07-13T08:29:43;101807.59;;;22.12;61.53
39949;BME280;29070;48.102;-1.652;2023-07-13T08:34:44;101800.47;;;22.57;60.60
39949;BME280;29070;48.102;-1.652;2023-07-13T08:39:44;101801.63;;;23.10;60.35
39949;BME280;29070;48.102;-1.652;2023-07-13T08:50:13;101791.72;;;24.08;58.12
39949;BME280;29070;48.102;-1.652;2023-07-13T08:55:22;101792.94;;;24.43;56.18
39949;BME280;29070;48.102;-1.652;2023-07-13T09:00:33;101789.28;;;24.54;55.60
39949;BME280;29070;48.102;-1.652;2023-07-13T09:05:38;101792.81;;;24.12;55.64
39949;BME280;29070;48.102;-1.652;2023-07-13T09:10:44;101788.72;;;24.57;54.67
39949;BME280;29070;48.102;-1.652;2023-07-13T09:15:47;101786.66;;;24.80;54.16
39949;BME280;29070;48.102;-1.652;2023-07-13T09:20:56;101778.94;;;25.19;51.23
39949;BME280;29070;48.102;-1.652;2023-07-13T09:26:18;101771.69;;;25.71;49.83
39949;BME280;29070;48.102;-1.652;2023-07-13T09:31:26;101785.78;;;26.43;50.59
39949;BME280;29070;48.102;-1.652;2023-07-13T09:36:32;101781.69;;;26.51;49.57
39949;BME280;29070;48.102;-1.652;2023-07-13T09:41:45;101778.06;;;26.11;48.08
39949;BME280;29070;48.102;-1.652;2023-07-13T09:46:54;101783.28;;;25.51;46.98
39949;BME280;29070;48.102;-1.652;2023-07-13T09:52:02;101778.16;;;25.24;44.76
39949;BME280;29070;48.102;-1.652;2023-07-13T09:57:11;101790.50;;;25.20;48.22
39949;BME280;29070;48.102;-1.652;2023-07-13T10:02:35;101781.84;;;24.87;46.71
39949;BME280;29070;48.102;-1.652;2023-07-13T10:07:41;101787.16;;;24.66;47.45
39949;BME280;29070;48.102;-1.652;2023-07-13T10:12:44;101794.44;;;24.71;47.72
39949;BME280;29070;48.102;-1.652;2023-07-13T10:17:45;101793.22;;;25.35;47.49
39949;BME280;29070;48.102;-1.652;2023-07-13T10:22:57;101793.16;;;26.07;46.21
39949;BME280;29070;48.102;-1.652;2023-07-13T10:28:05;101786.63;;;26.34;44.27
39949;BME280;29070;48.102;-1.652;2023-07-13T10:33:12;101783.00;;;26.59;45.01
39949;BME280;29070;48.102;-1.652;2023-07-13T10:38:18;101786.28;;;26.51;44.28
39949;BME280;29070;48.102;-1.652;2023-07-13T10:48:24;101788.91;;;27.11;43.46
39949;BME280;29070;48.102;-1.652;2023-07-13T10:53:31;101774.84;;;27.19;41.50
39949;BME280;29070;48.102;-1.652;2023-07-13T10:58:39;101771.47;;;27.03;41.19
39949;BME280;29070;48.102;-1.652;2023-07-13T11:24:17;101768.06;;;26.87;41.22
39949;BME280;29070;48.102;-1.652;2023-07-13T11:34:23;101764.31;;;26.88;40.53
39949;BME280;29070;48.102;-1.652;2023-07-13T11:39:29;101753.00;;;26.81;40.21
39949;BME280;29070;48.102;-1.652;2023-07-13T11:44:33;101746.63;;;26.67;40.36
39949;BME280;29070;48.102;-1.652;2023-07-13T11:49:42;101760.66;;;26.63;39.94
39949;BME280;29070;48.102;-1.652;2023-07-13T11:54:50;101766.56;;;26.71;40.44
39949;BME280;29070;48.102;-1.652;2023-07-13T11:59:55;101758.97;;;26.78;39.91
39949;BME280;29070;48.102;-1.652;2023-07-13T12:04:57;101758.38;;;26.81;39.95
39949;BME280;29070;48.102;-1.652;2023-07-13T12:15:17;101759.00;;;26.73;40.11
39949;BME280;29070;48.102;-1.652;2023-07-13T12:20:26;101751.75;;;26.63;39.72
39949;BME280;29070;48.102;-1.652;2023-07-13T12:25:27;101750.41;;;26.66;39.92
39949;BME280;29070;48.102;-1.652;2023-07-13T12:30:31;101737.22;;;26.59;39.62
39949;BME280;29070;48.102;-1.652;2023-07-13T12:35:38;101732.69;;;26.54;39.94
39949;BME280;29070;48.102;-1.652;2023-07-13T12:40:40;101734.75;;;26.73;39.96
39949;BME280;29070;48.102;-1.652;2023-07-13T12:45:55;101734.28;;;27.00;38.70
39949;BME280;29070;48.102;-1.652;2023-07-13T12:51:00;101728.03;;;27.10;39.01
39949;BME280;29070;48.102;-1.652;2023-07-13T12:56:02;101742.34;;;27.05;39.53
39949;BME280;29070;48.102;-1.652;2023-07-13T13:01:04;101733.19;;;27.06;39.33
39949;BME280;29070;48.102;-1.652;2023-07-13T13:11:19;101718.19;;;27.24;38.77
39949;BME280;29070;48.102;-1.652;2023-07-13T13:16:28;101726.25;;;27.29;38.83
39949;BME280;29070;48.102;-1.652;2023-07-13T13:21:31;101729.72;;;27.35;38.97
39949;BME280;29070;48.102;-1.652;2023-07-13T13:26:32;101725.38;;;27.63;38.33
39949;BME280;29070;48.102;-1.652;2023-07-13T13:31:33;101721.09;;;27.33;38.65
39949;BME280;29070;48.102;-1.652;2023-07-13T13:36:34;101724.66;;;27.28;38.91
39949;BME280;29070;48.102;-1.652;2023-07-13T13:41:35;101725.16;;;27.60;38.39
39949;BME280;29070;48.102;-1.652;2023-07-13T13:46:35;101714.69;;;27.58;38.24
39949;BME280;29070;48.102;-1.652;2023-07-13T13:51:36;101718.13;;;27.34;38.05
39949;BME280;29070;48.102;-1.652;2023-07-13T13:56:36;101721.16;;;27.28;38.56
39949;BME280;29070;48.102;-1.652;2023-07-13T14:01:37;101717.97;;;27.50;38.88
39949;BME280;29070;48.102;-1.652;2023-07-13T14:06:38;101707.25;;;27.45;38.36
39949;BME280;29070;48.102;-1.652;2023-07-13T14:11:39;101704.91;;;27.33;38.19
39949;BME280;29070;48.102;-1.652;2023-07-13T14:16:42;101707.81;;;27.42;38.65
39949;BME280;29070;48.102;-1.652;2023-07-13T14:21:43;101702.03;;;27.77;38.25
39949;BME280;29070;48.102;-1.652;2023-07-13T14:26:46;101677.09;;;27.91;37.67
39949;BME280;29070;48.102;-1.652;2023-07-13T14:31:47;101691.13;;;28.12;37.69
39949;BME280;29070;48.102;-1.652;2023-07-13T14:36:48;101688.22;;;28.08;37.04
39949;BME280;29070;48.102;-1.652;2023-07-13T14:41:51;101681.19;;;28.07;37.55
39949;BME280;29070;48.102;-1.652;2023-07-13T14:46:52;101687.09;;;27.90;37.58
39949;BME280;29070;48.102;-1.652;2023-07-13T14:51:54;101677.38;;;27.65;37.81
39949;BME280;29070;48.102;-1.652;2023-07-13T14:56:57;101690.56;;;27.43;38.08
39949;BME280;29070;48.102;-1.652;2023-07-13T15:01:57;101681.56;;;27.76;37.81
39949;BME280;29070;48.102;-1.652;2023-07-13T15:07:01;101675.00;;;28.07;37.68
39949;BME280;29070;48.102;-1.652;2023-07-13T15:12:02;101670.03;;;27.90;37.71
39949;BME280;29070;48.102;-1.652;2023-07-13T15:17:04;101668.34;;;27.75;37.37
39949;BME280;29070;48.102;-1.652;2023-07-13T15:22:07;101671.28;;;27.79;37.73
39949;BME280;29070;48.102;-1.652;2023-07-13T15:27:11;101661.56;;;27.77;37.75
39949;BME280;29070;48.102;-1.652;2023-07-13T15:32:15;101656.97;;;28.02;37.49
39949;BME280;29070;48.102;-1.652;2023-07-13T15:37:16;101655.03;;;27.84;37.82
39949;BME280;29070;48.102;-1.652;2023-07-13T15:42:19;101649.28;;;27.66;38.38
39949;BME280;29070;48.102;-1.652;2023-07-13T15:47:20;101652.91;;;28.05;37.99
39949;BME280;29070;48.102;-1.652;2023-07-13T15:52:22;101641.66;;;28.17;37.53
39949;BME280;29070;48.102;-1.652;2023-07-13T15:57:23;101652.31;;;28.27;37.03
39949;BME280;29070;48.102;-1.652;2023-07-13T16:02:24;101652.31;;;28.08;37.95
39949;BME280;29070;48.102;-1.652;2023-07-13T16:07:24;101645.75;;;27.71;37.38
39949;BME280;29070;48.102;-1.652;2023-07-13T16:12:25;101638.28;;;27.63;37.83
39949;BME280;29070;48.102;-1.652;2023-07-13T16:17:26;101630.91;;;27.49;38.45
39949;BME280;29070;48.102;-1.652;2023-07-13T16:22:28;101622.72;;;27.30;38.50
39949;BME280;29070;48.102;-1.652;2023-07-13T16:27:28;101630.41;;;27.13;38.56
39949;BME280;29070;48.102;-1.652;2023-07-13T16:32:28;101618.00;;;26.88;38.62
39949;BME280;29070;48.102;-1.652;2023-07-13T16:37:29;101617.63;;;26.99;38.52
39949;BME280;29070;48.102;-1.652;2023-07-13T16:42:29;101607.59;;;27.05;38.62
39949;BME280;29070;48.102;-1.652;2023-07-13T16:47:30;101598.53;;;26.96;38.50
39949;BME280;29070;48.102;-1.652;2023-07-13T16:52:30;101591.38;;;26.81;38.81
39949;BME280;29070;48.102;-1.652;2023-07-13T16:57:31;101586.72;;;26.92;39.02
39949;BME280;29070;48.102;-1.652;2023-07-13T17:02:35;101585.47;;;26.79;38.59
39949;BME280;29070;48.102;-1.652;2023-07-13T17:07:36;101589.78;;;26.80;38.70
39949;BME280;29070;48.102;-1.652;2023-07-13T17:12:37;101586.63;;;26.73;38.52
39949;BME280;29070;48.102;-1.652;2023-07-13T17:17:37;101566.25;;;26.61;38.74
39949;BME280;29070;48.102;-1.652;2023-07-13T17:22:42;101573.44;;;26.32;38.80
39949;BME280;29070;48.102;-1.652;2023-07-13T17:27:45;101570.47;;;26.33;39.22
39949;BME280;29070;48.102;-1.652;2023-07-13T17:32:47;101568.63;;;26.29;39.17
39949;BME280;29070;48.102;-1.652;2023-07-13T17:37:49;101565.16;;;26.23;39.16
39949;BME280;29070;48.102;-1.652;2023-07-13T17:42:50;101557.38;;;26.21;39.28
39949;BME280;29070;48.102;-1.652;2023-07-13T17:47:58;101551.81;;;26.08;39.29
39949;BME280;29070;48.102;-1.652;2023-07-13T17:53:00;101566.13;;;25.98;39.52
39949;BME280;29070;48.102;-1.652;2023-07-13T17:58:02;101563.44;;;25.93;39.48
39949;BME280;29070;48.102;-1.652;2023-07-13T18:03:08;101554.38;;;25.78;39.93
39949;BME280;29070;48.102;-1.652;2023-07-13T18:08:25;101560.91;;;25.67;40.08
39949;BME280;29070;48.102;-1.652;2023-07-13T18:13:26;101564.41;;;25.57;40.27
39949;BME280;29070;48.102;-1.652;2023-07-13T18:18:28;101562.56;;;25.53;40.31
39949;BME280;29070;48.102;-1.652;2023-07-13T18:23:30;101569.34;;;25.40;40.52
39949;BME280;29070;48.102;-1.652;2023-07-13T18:28:33;101569.66;;;25.28;40.47
39949;BME280;29070;48.102;-1.652;2023-07-13T18:33:33;101565.34;;;25.17;40.65
39949;BME280;29070;48.102;-1.652;2023-07-13T18:38:34;101565.38;;;25.06;40.77
39949;BME280;29070;48.102;-1.652;2023-07-13T18:43:35;101553.56;;;24.97;40.84
39949;BME280;29070;48.102;-1.652;2023-07-13T18:48:36;101544.44;;;24.93;40.92
39949;BME280;29070;48.102;-1.652;2023-07-13T18:53:36;101548.22;;;24.82;41.10
39949;BME280;29070;48.102;-1.652;2023-07-13T18:58:37;101564.34;;;24.61;41.98
39949;BME280;29070;48.102;-1.652;2023-07-13T19:03:38;101573.41;;;24.45;42.71
39949;BME280;29070;48.102;-1.652;2023-07-13T19:08:40;101568.56;;;24.16;43.69
39949;BME280;29070;48.102;-1.652;2023-07-13T19:13:43;101558.06;;;23.99;44.35
39949;BME280;29070;48.102;-1.652;2023-07-13T19:18:44;101576.03;;;23.93;44.71
39949;BME280;29070;48.102;-1.652;2023-07-13T19:23:46;101579.91;;;23.65;45.07
39949;BME280;29070;48.102;-1.652;2023-07-13T19:28:49;101573.19;;;23.57;45.57
39949;BME280;29070;48.102;-1.652;2023-07-13T19:33:51;101577.00;;;23.19;46.05
39949;BME280;29070;48.102;-1.652;2023-07-13T19:38:52;101573.31;;;22.93;46.85
39949;BME280;29070;48.102;-1.652;2023-07-13T19:43:53;101575.69;;;22.84;47.29
39949;BME280;29070;48.102;-1.652;2023-07-13T19:48:53;101583.91;;;22.77;47.60
39949;BME280;29070;48.102;-1.652;2023-07-13T19:53:59;101571.25;;;22.68;48.14
39949;BME280;29070;48.102;-1.652;2023-07-13T19:59:04;101569.50;;;22.51;47.89
39949;BME280;29070;48.102;-1.652;2023-07-13T20:04:10;101599.34;;;22.38;48.56
39949;BME280;29070;48.102;-1.652;2023-07-13T20:09:19;101598.19;;;22.29;49.02
39949;BME280;29070;48.102;-1.652;2023-07-13T20:14:22;101583.91;;;22.23;49.13
39949;BME280;29070;48.102;-1.652;2023-07-13T20:19:24;101597.13;;;22.07;49.55
39949;BME280;29070;48.102;-1.652;2023-07-13T20:24:24;101610.56;;;21.90;49.77
39949;BME280;29070;48.102;-1.652;2023-07-13T20:29:25;101594.47;;;21.85;49.96
39949;BME280;29070;48.102;-1.652;2023-07-13T20:34:28;101584.84;;;21.84;49.95
39949;BME280;29070;48.102;-1.652;2023-07-13T20:39:35;101597.34;;;21.79;50.18
39949;BME280;29070;48.102;-1.652;2023-07-13T20:44:35;101599.31;;;21.66;50.49
39949;BME280;29070;48.102;-1.652;2023-07-13T20:49:35;101589.69;;;21.65;50.61
39949;BME280;29070;48.102;-1.652;2023-07-13T20:54:36;101598.22;;;21.62;51.25
39949;BME280;29070;48.102;-1.652;2023-07-13T20:59:36;101598.22;;;21.62;51.25
39949;BME280;29070;48.102;-1.652;2023-07-13T21:04:37;101587.31;;;21.47;51.83
39949;BME280;29070;48.102;-1.652;2023-07-13T21:09:37;101584.16;;;21.33;52.09
39949;BME280;29070;48.102;-1.652;2023-07-13T21:14:37;101587.63;;;21.33;52.09
39949;BME280;29070;48.102;-1.652;2023-07-13T21:19:38;101581.97;;;21.30;52.05
39949;BME280;29070;48.102;-1.652;2023-07-13T21:24:38;101588.94;;;21.31;52.52
39949;BME280;29070;48.102;-1.652;2023-07-13T21:29:38;101588.38;;;21.29;52.29
39949;BME280;29070;48.102;-1.652;2023-07-13T21:34:39;101585.63;;;21.24;52.49
39949;BME280;29070;48.102;-1.652;2023-07-13T21:39:39;101579.66;;;21.17;52.91
39949;BME280;29070;48.102;-1.652;2023-07-13T21:44:40;101563.31;;;21.13;52.66
39949;BME280;29070;48.102;-1.652;2023-07-13T21:49:40;101559.44;;;21.04;52.85
39949;BME280;29070;48.102;-1.652;2023-07-13T21:54:40;101568.25;;;21.04;53.27
39949;BME280;29070;48.102;-1.652;2023-07-13T21:59:41;101563.72;;;21.05;53.22
39949;BME280;29070;48.102;-1.652;2023-07-13T22:04:41;101557.66;;;20.92;53.49
39949;BME280;29070;48.102;-1.652;2023-07-13T22:09:42;101558.63;;;20.86;53.60
39949;BME280;29070;48.102;-1.652;2023-07-13T22:14:42;101557.34;;;20.89;53.93
39949;BME280;29070;48.102;-1.652;2023-07-13T22:19:42;101548.03;;;20.91;53.75
39949;BME280;29070;48.102;-1.652;2023-07-13T22:24:43;101553.38;;;20.91;54.25
39949;BME280;29070;48.102;-1.652;2023-07-13T22:29:43;101536.72;;;20.84;54.04
39949;BME280;29070;48.102;-1.652;2023-07-13T22:34:43;101536.72;;;20.84;54.36
39949;BME280;29070;48.102;-1.652;2023-07-13T22:39:44;101518.28;;;20.83;54.42
39949;BME280;29070;48.102;-1.652;2023-07-13T22:44:45;101533.91;;;20.74;54.70
39949;BME280;29070;48.102;-1.652;2023-07-13T22:49:47;101536.00;;;20.72;54.64
39949;BME280;29070;48.102;-1.652;2023-07-13T22:54:47;101519.81;;;20.62;54.85
39949;BME280;29070;48.102;-1.652;2023-07-13T22:59:48;101515.41;;;20.38;55.22
39949;BME280;29070;48.102;-1.652;2023-07-13T23:04:48;101510.25;;;20.32;55.73
39949;BME280;29070;48.102;-1.652;2023-07-13T23:09:50;101502.72;;;20.29;55.82
39949;BME280;29070;48.102;-1.652;2023-07-13T23:14:50;101504.44;;;20.35;55.74
39949;BME280;29070;48.102;-1.652;2023-07-13T23:19:51;101496.34;;;20.30;55.53
39949;BME280;29070;48.102;-1.652;2023-07-13T23:24:51;101497.41;;;20.29;55.31
39949;BME280;29070;48.102;-1.652;2023-07-13T23:29:52;101489.78;;;20.21;55.14
39949;BME280;29070;48.102;-1.652;2023-07-13T23:34:52;101483.22;;;20.11;55.17
39949;BME280;29070;48.102;-1.652;2023-07-13T23:39:53;101482.44;;;20.11;55.33
39949;BME280;29070;48.102;-1.652;2023-07-13T23:44:53;101464.00;;;20.09;55.21
39949;BME280;29070;48.102;-1.652;2023-07-13T23:49:54;101456.50;;;20.06;55.33
39949;BME280;29070;48.102;-1.652;2023-07-13T23:54:55;101467.72;;;20.08;55.26
39949;BME280;29070;48.102;-1.652;2023-07-13T23:59:56;101465.78;;;20.04;55.24
